PWSweather.com
Personal Weather Stations
Station Observations
J24K28P63
Vysocina, PocatkyCZ 39464

VysocinaPocatkyCZ 39464

Lat: 49.2594238, Lon: 15.2331769

Elevation: 2011

Station Type: Vantage Pro2+

http://meteo-jirkalina.com

Latest ConditionsUpdated 1:30:13 PM GMT+01:01 Tuesday, Oct 22, 2019
Currently Today's Max Today's Min Today's Average
Temperature 67.9°F19.9°C 67.9°F19.9°C 43.9°F6.6°C 50.9°F10.5°C
Dew Point 56.9°F13.8°C 58.9°F14.9°C 43.9°F6.6°C 50.3°F10.2°C
Winds 1.9 mph SSE3.1 kmh SSE 3.3 mph -5.3 kmh - - 0.3 mph 0.5 kmh
Wind Gusts 5.0 mph8.0 kmh 6.0 mph9.7 kmh - -
Humidity 68% 100% 68% 98%
Pressure 30.15 in1021.0 mb 30.26 in1024.7 mb 30.12 in1020.0 mb -
Hour Temp Dew Point Humidity Winds Wind Gusts Pressure Precip Precip Rate Daily Precip Total
01:30 PM 67.9°F19.9°C 56.9°F13.8°C 68% 1.9 mph SSE3.1 kmh SSE 5.0 mph8.0 kmh 30.15 in1021.0 mb - 0.00 in0.0 mm 0.01 in0.3 mm
01:20 PM 54.2°F12.3°C 54.2°F12.3°C 100% Calm Calm -- 30.23 in1023.7 mb - 0.00 in0.0 mm 0.01 in0.3 mm
01:10 PM 54.1°F12.3°C 54.1°F12.3°C 100% Calm Calm -- 30.24 in1024.0 mb - 0.00 in0.0 mm 0.01 in0.3 mm
01:00 PM 66.1°F18.9°C 58.3°F14.6°C 76% Calm Calm -- 30.16 in1021.3 mb - 0.00 in0.0 mm 0.01 in0.3 mm
12:50 PM 54.1°F12.3°C 54.1°F12.3°C 100% Calm Calm 1.0 mph1.6 kmh 30.23 in1023.7 mb - 0.00 in0.0 mm 0.01 in0.3 mm
12:40 PM 54.1°F12.3°C 54.1°F12.3°C 100% 1.0 mph WNW1.6 kmh WNW 2.0 mph3.2 kmh 30.24 in1024.0 mb - 0.00 in0.0 mm 0.01 in0.3 mm
12:30 PM 66.1°F18.9°C 58.7°F14.8°C 77% 1.9 mph SSW3.1 kmh SSW 4.0 mph6.4 kmh 30.17 in1021.7 mb - 0.00 in0.0 mm 0.01 in0.3 mm
12:20 PM 53.6°F12.0°C 53.6°F12.0°C 100% Calm Calm -- 30.25 in1024.4 mb - 0.00 in0.0 mm 0.01 in0.3 mm
12:10 PM 53.3°F11.8°C 53.3°F11.8°C 100% Calm Calm -- 30.25 in1024.4 mb - 0.00 in0.0 mm 0.01 in0.3 mm
12:00 PM 65.3°F18.5°C 58.6°F14.8°C 79% 1.9 mph SSW3.1 kmh SSW 3.0 mph4.8 kmh 30.18 in1022.0 mb - 0.00 in0.0 mm 0.01 in0.3 mm
11:50 AM 53.4°F11.9°C 53.4°F11.9°C 100% Calm Calm -- 30.26 in1024.7 mb - 0.00 in0.0 mm 0.01 in0.3 mm
11:40 AM 53.6°F12.0°C 53.6°F12.0°C 100% Calm Calm -- 30.26 in1024.7 mb - 0.00 in0.0 mm 0.01 in0.3 mm
11:30 AM 63.9°F17.7°C 58.6°F14.8°C 83% 1.6 mph SSW2.6 kmh SSW 4.0 mph6.4 kmh 30.18 in1022.0 mb - 0.00 in0.0 mm 0.01 in0.3 mm
11:20 AM 53.4°F11.9°C 53.4°F11.9°C 100% 1.0 mph WNW1.6 kmh WNW 2.0 mph3.2 kmh 30.26 in1024.7 mb - 0.00 in0.0 mm 0.01 in0.3 mm
11:10 AM 53.2°F11.8°C 53.2°F11.8°C 100% 1.0 mph WNW1.6 kmh WNW 2.0 mph3.2 kmh 30.26 in1024.7 mb - 0.00 in0.0 mm 0.01 in0.3 mm
11:00 AM 62.6°F17.0°C 58.0°F14.4°C 85% 3.3 mph SSE5.3 kmh SSE 6.0 mph9.7 kmh 30.18 in1022.0 mb - 0.00 in0.0 mm 0.01 in0.3 mm
10:50 AM 52.2°F11.2°C 52.2°F11.2°C 100% 1.0 mph WNW1.6 kmh WNW 2.0 mph3.2 kmh 30.26 in1024.7 mb - 0.00 in0.0 mm 0.01 in0.3 mm
10:40 AM 52.2°F11.2°C 52.2°F11.2°C 100% 1.0 mph WNW1.6 kmh WNW 3.0 mph4.8 kmh 30.25 in1024.4 mb - 0.00 in0.0 mm 0.01 in0.3 mm
10:30 AM 60.0°F15.6°C 58.9°F14.9°C 96% 0.8 mph ESE1.3 kmh ESE 2.0 mph3.2 kmh 30.17 in1021.7 mb - 0.00 in0.0 mm 0.01 in0.3 mm
10:20 AM 52.3°F11.3°C 52.3°F11.3°C 100% Calm Calm -- 30.25 in1024.4 mb - 0.00 in0.0 mm 0.01 in0.3 mm
10:10 AM 51.9°F11.1°C 51.9°F11.1°C 100% Calm Calm -- 30.24 in1024.0 mb - 0.00 in0.0 mm 0.01 in0.3 mm
10:00 AM 51.9°F11.1°C 51.9°F11.1°C 100% Calm Calm -- 30.25 in1024.4 mb - 0.00 in0.0 mm 0.01 in0.3 mm
09:50 AM 51.6°F10.9°C 51.6°F10.9°C 100% Calm Calm -- 30.24 in1024.0 mb - 0.00 in0.0 mm 0.01 in0.3 mm
09:40 AM 51.2°F10.7°C 51.2°F10.7°C 100% Calm Calm -- 30.24 in1024.0 mb - 0.00 in0.0 mm 0.01 in0.3 mm
09:30 AM 53.3°F11.8°C 53.3°F11.8°C 100% Calm Calm -- 30.17 in1021.7 mb - 0.00 in0.0 mm 0.01 in0.3 mm
09:20 AM 50.7°F10.4°C 50.7°F10.4°C 100% Calm Calm -- 30.23 in1023.7 mb - 0.00 in0.0 mm 0.01 in0.3 mm
09:10 AM 50.8°F10.4°C 50.8°F10.4°C 100% Calm Calm 1.0 mph1.6 kmh 30.23 in1023.7 mb - 0.00 in0.0 mm 0.01 in0.3 mm
09:00 AM 53.9°F12.2°C 53.9°F12.2°C 100% Calm Calm -- 30.17 in1021.7 mb - 0.00 in0.0 mm 0.01 in0.3 mm
08:50 AM 50.2°F10.1°C 50.2°F10.1°C 100% Calm Calm -- 30.22 in1023.4 mb - 0.00 in0.0 mm 0.01 in0.3 mm
08:40 AM 49.9°F9.9°C 49.9°F9.9°C 100% Calm Calm -- 30.22 in1023.4 mb - 0.00 in0.0 mm 0.01 in0.3 mm
08:30 AM 52.8°F11.6°C 52.8°F11.6°C 100% Calm Calm -- 30.17 in1021.7 mb - 0.00 in0.0 mm 0.01 in0.3 mm
08:20 AM 49.5°F9.7°C 49.5°F9.7°C 100% Calm Calm -- 30.23 in1023.7 mb - 0.00 in0.0 mm 0.01 in0.3 mm
08:10 AM 49.3°F9.6°C 49.3°F9.6°C 100% Calm Calm -- 30.24 in1024.0 mb - 0.00 in0.0 mm 0.01 in0.3 mm
08:00 AM 49.2°F9.6°C 49.2°F9.6°C 100% 1.0 mph WNW1.6 kmh WNW 3.0 mph4.8 kmh 30.24 in1024.0 mb - 0.00 in0.0 mm 0.01 in0.3 mm
07:50 AM 49.5°F9.7°C 49.5°F9.7°C 100% 2.0 mph WNW3.2 kmh WNW 3.0 mph4.8 kmh 30.24 in1024.0 mb - 0.00 in0.0 mm 0.01 in0.3 mm
07:40 AM 49.4°F9.7°C 49.4°F9.7°C 100% Calm Calm 1.0 mph1.6 kmh 30.24 in1024.0 mb - 0.00 in0.0 mm 0.01 in0.3 mm
07:30 AM 46.2°F7.9°C 46.2°F7.9°C 100% Calm Calm -- 30.17 in1021.7 mb - 0.00 in0.0 mm 0.01 in0.3 mm
07:20 AM 49.2°F9.6°C 49.2°F9.6°C 100% Calm Calm -- 30.23 in1023.7 mb - 0.00 in0.0 mm 0.01 in0.3 mm
07:10 AM 49.1°F9.5°C 49.1°F9.5°C 100% Calm Calm -- 30.23 in1023.7 mb - 0.00 in0.0 mm 0.01 in0.3 mm
07:00 AM 45.4°F7.4°C 45.4°F7.4°C 100% Calm Calm -- 30.16 in1021.3 mb - 0.00 in0.0 mm 0.01 in0.3 mm
06:50 AM 48.7°F9.3°C 48.7°F9.3°C 100% Calm Calm -- 30.22 in1023.4 mb - 0.00 in0.0 mm 0.01 in0.3 mm
06:40 AM 48.6°F9.2°C 48.6°F9.2°C 100% Calm Calm -- 30.21 in1023.0 mb - 0.01 in0.3 mm 0.01 in0.3 mm
06:30 AM 45.5°F7.5°C 45.5°F7.5°C 100% Calm Calm -- 30.16 in1021.3 mb - 0.00 in0.0 mm 0.00 in0.0 mm
06:20 AM 48.4°F9.1°C 48.4°F9.1°C 100% Calm Calm -- 30.21 in1023.0 mb - 0.00 in0.0 mm 0.00 in0.0 mm
06:10 AM 48.5°F9.2°C 48.5°F9.2°C 100% Calm Calm -- 30.22 in1023.4 mb - 0.00 in0.0 mm 0.00 in0.0 mm
06:00 AM 48.5°F9.2°C 48.5°F9.2°C 100% 1.0 mph WNW1.6 kmh WNW 2.0 mph3.2 kmh 30.22 in1023.4 mb - 0.00 in0.0 mm 0.00 in0.0 mm
05:50 AM 48.6°F9.2°C 48.6°F9.2°C 100% Calm Calm -- 30.21 in1023.0 mb - 0.00 in0.0 mm 0.00 in0.0 mm
05:40 AM 48.7°F9.3°C 48.7°F9.3°C 100% 1.0 mph WNW1.6 kmh WNW 3.0 mph4.8 kmh 30.21 in1023.0 mb - 0.00 in0.0 mm 0.00 in0.0 mm
05:30 AM 43.9°F6.6°C 43.9°F6.6°C 100% Calm Calm -- 30.14 in1020.7 mb - 0.00 in0.0 mm 0.00 in0.0 mm
05:20 AM 48.7°F9.3°C 48.7°F9.3°C 100% Calm Calm -- 30.20 in1022.7 mb - 0.00 in0.0 mm 0.00 in0.0 mm
05:10 AM 48.8°F9.3°C 48.8°F9.3°C 100% Calm Calm -- 30.20 in1022.7 mb - 0.00 in0.0 mm 0.00 in0.0 mm
05:00 AM 48.7°F9.3°C 48.7°F9.3°C 100% Calm Calm -- 30.20 in1022.7 mb - 0.00 in0.0 mm 0.00 in0.0 mm
04:50 AM 48.7°F9.3°C 48.7°F9.3°C 100% Calm Calm -- 30.20 in1022.7 mb - 0.00 in0.0 mm 0.00 in0.0 mm
04:40 AM 48.8°F9.3°C 48.8°F9.3°C 100% Calm Calm -- 30.20 in1022.7 mb - 0.00 in0.0 mm 0.00 in0.0 mm
04:30 AM 44.6°F7.0°C 44.6°F7.0°C 100% Calm Calm -- 30.13 in1020.3 mb - 0.00 in0.0 mm 0.00 in0.0 mm
04:20 AM 48.8°F9.3°C 48.8°F9.3°C 100% Calm Calm -- 30.20 in1022.7 mb - 0.00 in0.0 mm 0.00 in0.0 mm
04:10 AM 49.0°F9.4°C 49.0°F9.4°C 100% Calm Calm -- 30.19 in1022.4 mb - 0.00 in0.0 mm 0.00 in0.0 mm
04:00 AM 49.0°F9.4°C 49.0°F9.4°C 100% Calm Calm -- 30.20 in1022.7 mb - 0.00 in0.0 mm 0.00 in0.0 mm
03:50 AM 49.1°F9.5°C 49.1°F9.5°C 100% Calm Calm -- 30.20 in1022.7 mb - 0.00 in0.0 mm 0.00 in0.0 mm
03:40 AM 49.1°F9.5°C 49.1°F9.5°C 100% Calm Calm -- 30.19 in1022.4 mb - 0.00 in0.0 mm 0.00 in0.0 mm
03:30 AM 45.4°F7.4°C 45.4°F7.4°C 100% Calm Calm -- 30.14 in1020.7 mb - 0.00 in0.0 mm 0.00 in0.0 mm
03:20 AM 49.2°F9.6°C 49.2°F9.6°C 100% Calm Calm -- 30.19 in1022.4 mb - 0.00 in0.0 mm 0.00 in0.0 mm
03:10 AM 49.1°F9.5°C 49.1°F9.5°C 100% Calm Calm -- 30.19 in1022.4 mb - 0.00 in0.0 mm 0.00 in0.0 mm
03:00 AM 45.2°F7.3°C 45.2°F7.3°C 100% Calm Calm -- 30.14 in1020.7 mb - 0.00 in0.0 mm 0.00 in0.0 mm
02:50 AM 49.0°F9.4°C 49.0°F9.4°C 100% Calm Calm -- 30.20 in1022.7 mb - 0.00 in0.0 mm 0.00 in0.0 mm
02:40 AM 49.0°F9.4°C 49.0°F9.4°C 100% Calm Calm -- 30.19 in1022.4 mb - 0.00 in0.0 mm 0.00 in0.0 mm
02:30 AM 45.2°F7.3°C 45.2°F7.3°C 100% Calm Calm -- 30.14 in1020.7 mb - 0.00 in0.0 mm 0.00 in0.0 mm
02:20 AM 48.9°F9.4°C 48.9°F9.4°C 100% Calm Calm -- 30.19 in1022.4 mb - 0.00 in0.0 mm 0.00 in0.0 mm
02:10 AM 48.8°F9.3°C 48.8°F9.3°C 100% Calm Calm -- 30.20 in1022.7 mb - 0.00 in0.0 mm 0.00 in0.0 mm
02:00 AM 48.7°F9.3°C 48.7°F9.3°C 100% Calm Calm -- 30.19 in1022.4 mb - 0.00 in0.0 mm 0.00 in0.0 mm
01:50 AM 48.7°F9.3°C 48.7°F9.3°C 100% Calm Calm -- 30.19 in1022.4 mb - 0.00 in0.0 mm 0.00 in0.0 mm
01:40 AM 48.8°F9.3°C 48.8°F9.3°C 100% Calm Calm -- 30.19 in1022.4 mb - 0.00 in0.0 mm 0.00 in0.0 mm
01:30 AM 46.0°F7.8°C 46.0°F7.8°C 100% Calm Calm -- 30.12 in1020.0 mb - 0.00 in0.0 mm 0.00 in0.0 mm
01:20 AM 48.7°F9.3°C 48.7°F9.3°C 100% Calm Calm 1.0 mph1.6 kmh 30.19 in1022.4 mb - 0.00 in0.0 mm 0.00 in0.0 mm
01:10 AM 48.7°F9.3°C 48.7°F9.3°C 100% Calm Calm -- 30.19 in1022.4 mb - 0.00 in0.0 mm 0.00 in0.0 mm
01:00 AM 46.4°F8.0°C 46.4°F8.0°C 100% Calm Calm -- 30.12 in1020.0 mb - 0.00 in0.0 mm 0.00 in0.0 mm
12:50 AM 48.6°F9.2°C 48.6°F9.2°C 100% Calm Calm -- 30.18 in1022.0 mb - 0.00 in0.0 mm 0.00 in0.0 mm
12:40 AM 48.6°F9.2°C 48.6°F9.2°C 100% 1.0 mph WNW1.6 kmh WNW 2.0 mph3.2 kmh 30.18 in1022.0 mb - 0.00 in0.0 mm 0.00 in0.0 mm
12:30 AM 47.0°F8.3°C 47.0°F8.3°C 100% Calm Calm -- 30.12 in1020.0 mb - 0.00 in0.0 mm 0.00 in0.0 mm
12:20 AM 48.8°F9.3°C 48.8°F9.3°C 100% Calm Calm -- 30.18 in1022.0 mb - 0.00 in0.0 mm 0.00 in0.0 mm
12:10 AM 49.0°F9.4°C 49.0°F9.4°C 100% Calm Calm -- 30.17 in1021.7 mb - 0.00 in0.0 mm 0.00 in0.0 mm
12:00 AM 49.0°F9.4°C 49.0°F9.4°C 100% Calm Calm -- 30.18 in1022.0 mb - 0.00 in0.0 mm 0.00 in0.0 mm